sensor_id;sensor_type;location;lat;lon;timestamp;temperature;humidity
7564;DHT22;3823;53.586;10.040;2023-03-03T00:00:19;2.90;1.00
7564;DHT22;3823;53.586;10.040;2023-03-03T00:02:45;2.90;1.00
7564;DHT22;3823;53.586;10.040;2023-03-03T00:05:10;3.00;1.00
7564;DHT22;3823;53.586;10.040;2023-03-03T00:07:42;3.00;1.00
7564;DHT22;3823;53.586;10.040;2023-03-03T00:10:09;3.00;1.00
7564;DHT22;3823;53.586;10.040;2023-03-03T00:12:34;3.00;1.00
7564;DHT22;3823;53.586;10.040;2023-03-03T00:15:10;3.00;1.00
7564;DHT22;3823;53.586;10.040;2023-03-03T00:17:37;3.00;1.00
7564;DHT22;3823;53.586;10.040;2023-03-03T00:22:53;3.00;1.00
7564;DHT22;3823;53.586;10.040;2023-03-03T00:25:29;3.10;1.00
7564;DHT22;3823;53.586;10.040;2023-03-03T00:27:55;3.00;1.00
7564;DHT22;3823;53.586;10.040;2023-03-03T00:30:26;3.00;1.00
7564;DHT22;3823;53.586;10.040;2023-03-03T00:32:53;3.00;1.00
7564;DHT22;3823;53.586;10.040;2023-03-03T00:35:28;3.00;1.00
7564;DHT22;3823;53.586;10.040;2023-03-03T00:38:18;3.00;1.00
7564;DHT22;3823;53.586;10.040;2023-03-03T00:40:45;3.00;1.00
7564;DHT22;3823;53.586;10.040;2023-03-03T00:43:19;3.00;1.00
7564;DHT22;3823;53.586;10.040;2023-03-03T00:45:51;3.00;1.00
7564;DHT22;3823;53.586;10.040;2023-03-03T00:48:23;3.00;1.00
7564;DHT22;3823;53.586;10.040;2023-03-03T00:50:50;3.00;1.00
7564;DHT22;3823;53.586;10.040;2023-03-03T00:53:18;3.00;1.00
7564;DHT22;3823;53.586;10.040;2023-03-03T00:55:45;2.90;1.00
7564;DHT22;3823;53.586;10.040;2023-03-03T00:58:12;2.90;1.00
7564;DHT22;3823;53.586;10.040;2023-03-03T01:00:39;3.00;1.00
7564;DHT22;3823;53.586;10.040;2023-03-03T01:03:08;3.00;1.00
7564;DHT22;3823;53.586;10.040;2023-03-03T01:05:35;3.00;1.00
7564;DHT22;3823;53.586;10.040;2023-03-03T01:08:01;2.90;1.00
7564;DHT22;3823;53.586;10.040;2023-03-03T01:10:29;2.90;1.00
7564;DHT22;3823;53.586;10.040;2023-03-03T01:12:55;2.90;1.00
7564;DHT22;3823;53.586;10.040;2023-03-03T01:15:22;2.90;1.00
7564;DHT22;3823;53.586;10.040;2023-03-03T01:17:48;2.80;1.00
7564;DHT22;3823;53.586;10.040;2023-03-03T01:20:14;2.80;1.00
7564;DHT22;3823;53.586;10.040;2023-03-03T01:22:40;2.80;1.00
7564;DHT22;3823;53.586;10.040;2023-03-03T01:25:06;2.80;1.00
7564;DHT22;3823;53.586;10.040;2023-03-03T01:27:33;2.80;1.00
7564;DHT22;3823;53.586;10.040;2023-03-03T01:29:59;2.80;1.00
7564;DHT22;3823;53.586;10.040;2023-03-03T01:32:25;2.70;1.00
7564;DHT22;3823;53.586;10.040;2023-03-03T01:34:52;2.70;1.00
7564;DHT22;3823;53.586;10.040;2023-03-03T01:37:19;2.70;1.00
7564;DHT22;3823;53.586;10.040;2023-03-03T01:39:49;2.80;1.00
7564;DHT22;3823;53.586;10.040;2023-03-03T01:42:15;2.80;1.00
7564;DHT22;3823;53.586;10.040;2023-03-03T01:44:46;2.80;1.00
7564;DHT22;3823;53.586;10.040;2023-03-03T01:47:26;2.80;1.00
7564;DHT22;3823;53.586;10.040;2023-03-03T01:50:02;2.80;1.00
7564;DHT22;3823;53.586;10.040;2023-03-03T01:54:59;2.80;1.00
7564;DHT22;3823;53.586;10.040;2023-03-03T01:57:32;2.80;1.00
7564;DHT22;3823;53.586;10.040;2023-03-03T02:00:18;2.70;1.00
7564;DHT22;3823;53.586;10.040;2023-03-03T02:02:48;2.70;1.00
7564;DHT22;3823;53.586;10.040;2023-03-03T02:05:15;2.70;1.00
7564;DHT22;3823;53.586;10.040;2023-03-03T02:07:41;2.70;1.00
7564;DHT22;3823;53.586;10.040;2023-03-03T02:10:15;2.60;1.00
7564;DHT22;3823;53.586;10.040;2023-03-03T02:15:28;2.60;1.00
7564;DHT22;3823;53.586;10.040;2023-03-03T02:17:59;2.60;1.00
7564;DHT22;3823;53.586;10.040;2023-03-03T02:23:41;2.60;1.00
7564;DHT22;3823;53.586;10.040;2023-03-03T02:26:24;2.60;1.00
7564;DHT22;3823;53.586;10.040;2023-03-03T02:28:53;2.60;1.00
7564;DHT22;3823;53.586;10.040;2023-03-03T02:31:22;2.50;1.00
7564;DHT22;3823;53.586;10.040;2023-03-03T02:33:50;2.50;1.00
7564;DHT22;3823;53.586;10.040;2023-03-03T02:36:22;2.50;1.00
7564;DHT22;3823;53.586;10.040;2023-03-03T02:39:13;2.50;1.00
7564;DHT22;3823;53.586;10.040;2023-03-03T02:44:39;2.40;1.00
7564;DHT22;3823;53.586;10.040;2023-03-03T02:47:08;2.40;1.00
7564;DHT22;3823;53.586;10.040;2023-03-03T02:49:36;2.50;1.00
7564;DHT22;3823;53.586;10.040;2023-03-03T02:52:10;2.40;1.00
7564;DHT22;3823;53.586;10.040;2023-03-03T02:54:36;2.30;1.00
7564;DHT22;3823;53.586;10.040;2023-03-03T02:57:03;2.30;1.00
7564;DHT22;3823;53.586;10.040;2023-03-03T02:59:29;2.30;1.00
7564;DHT22;3823;53.586;10.040;2023-03-03T03:01:55;2.30;1.00
7564;DHT22;3823;53.586;10.040;2023-03-03T03:04:23;2.30;1.00
7564;DHT22;3823;53.586;10.040;2023-03-03T03:06:55;2.20;1.00
7564;DHT22;3823;53.586;10.040;2023-03-03T03:09:23;2.30;1.00
7564;DHT22;3823;53.586;10.040;2023-03-03T03:11:54;2.30;1.00
7564;DHT22;3823;53.586;10.040;2023-03-03T03:14:22;2.20;1.00
7564;DHT22;3823;53.586;10.040;2023-03-03T03:16:53;2.20;1.00
7564;DHT22;3823;53.586;10.040;2023-03-03T03:19:18;2.20;1.00
7564;DHT22;3823;53.586;10.040;2023-03-03T03:21:44;2.20;1.00
7564;DHT22;3823;53.586;10.040;2023-03-03T03:24:12;2.10;1.00
7564;DHT22;3823;53.586;10.040;2023-03-03T03:26:38;2.20;1.00
7564;DHT22;3823;53.586;10.040;2023-03-03T03:29:08;2.20;1.00
7564;DHT22;3823;53.586;10.040;2023-03-03T03:31:35;2.10;1.00
7564;DHT22;3823;53.586;10.040;2023-03-03T03:34:01;2.10;1.00
7564;DHT22;3823;53.586;10.040;2023-03-03T03:36:32;2.20;1.00
7564;DHT22;3823;53.586;10.040;2023-03-03T03:38:58;2.10;1.00
7564;DHT22;3823;53.586;10.040;2023-03-03T03:41:26;2.10;1.00
7564;DHT22;3823;53.586;10.040;2023-03-03T03:43:52;2.10;1.00
7564;DHT22;3823;53.586;10.040;2023-03-03T03:46:25;2.00;1.00
7564;DHT22;3823;53.586;10.040;2023-03-03T03:48:56;2.00;1.00
7564;DHT22;3823;53.586;10.040;2023-03-03T03:51:25;2.00;1.00
7564;DHT22;3823;53.586;10.040;2023-03-03T03:53:51;2.00;1.00
7564;DHT22;3823;53.586;10.040;2023-03-03T03:56:16;1.90;1.00
7564;DHT22;3823;53.586;10.040;2023-03-03T03:58:44;1.90;1.00
7564;DHT22;3823;53.586;10.040;2023-03-03T04:01:15;1.90;1.00
7564;DHT22;3823;53.586;10.040;2023-03-03T04:03:41;2.00;1.00
7564;DHT22;3823;53.586;10.040;2023-03-03T04:06:09;1.90;1.00
7564;DHT22;3823;53.586;10.040;2023-03-03T04:08:35;2.00;1.00
7564;DHT22;3823;53.586;10.040;2023-03-03T04:11:06;2.00;1.00
7564;DHT22;3823;53.586;10.040;2023-03-03T04:13:34;2.00;1.00
7564;DHT22;3823;53.586;10.040;2023-03-03T04:16:03;1.90;1.00
7564;DHT22;3823;53.586;10.040;2023-03-03T04:18:28;2.00;1.00
7564;DHT22;3823;53.586;10.040;2023-03-03T04:20:57;2.00;1.00
7564;DHT22;3823;53.586;10.040;2023-03-03T04:23:22;2.00;1.00
7564;DHT22;3823;53.586;10.040;2023-03-03T04:25:48;2.00;1.00
7564;DHT22;3823;53.586;10.040;2023-03-03T04:28:30;2.00;1.00
7564;DHT22;3823;53.586;10.040;2023-03-03T04:30:58;2.10;1.00
7564;DHT22;3823;53.586;10.040;2023-03-03T04:33:26;2.10;1.00
7564;DHT22;3823;53.586;10.040;2023-03-03T04:35:52;2.20;1.00
7564;DHT22;3823;53.586;10.040;2023-03-03T04:38:17;2.20;1.00
7564;DHT22;3823;53.586;10.040;2023-03-03T04:40:43;2.10;1.00
7564;DHT22;3823;53.586;10.040;2023-03-03T04:43:11;2.10;1.00
7564;DHT22;3823;53.586;10.040;2023-03-03T04:45:40;2.10;1.00
7564;DHT22;3823;53.586;10.040;2023-03-03T04:48:06;2.00;1.00
7564;DHT22;3823;53.586;10.040;2023-03-03T04:50:31;2.00;1.00
7564;DHT22;3823;53.586;10.040;2023-03-03T04:53:02;1.90;1.00
7564;DHT22;3823;53.586;10.040;2023-03-03T04:55:36;1.90;1.00
7564;DHT22;3823;53.586;10.040;2023-03-03T04:58:11;1.90;1.00
7564;DHT22;3823;53.586;10.040;2023-03-03T05:00:37;1.90;1.00
7564;DHT22;3823;53.586;10.040;2023-03-03T05:03:05;1.90;1.00
7564;DHT22;3823;53.586;10.040;2023-03-03T05:05:34;2.00;1.00
7564;DHT22;3823;53.586;10.040;2023-03-03T05:08:05;2.00;1.00
7564;DHT22;3823;53.586;10.040;2023-03-03T05:10:33;2.10;1.00
7564;DHT22;3823;53.586;10.040;2023-03-03T05:13:07;2.00;1.00
7564;DHT22;3823;53.586;10.040;2023-03-03T05:15:34;2.00;1.00
7564;DHT22;3823;53.586;10.040;2023-03-03T05:18:00;2.10;1.00
7564;DHT22;3823;53.586;10.040;2023-03-03T05:20:25;2.10;1.00
7564;DHT22;3823;53.586;10.040;2023-03-03T05:22:51;2.00;1.00
7564;DHT22;3823;53.586;10.040;2023-03-03T05:25:17;2.00;1.00
7564;DHT22;3823;53.586;10.040;2023-03-03T05:27:45;2.00;1.00
7564;DHT22;3823;53.586;10.040;2023-03-03T05:30:11;2.00;1.00
7564;DHT22;3823;53.586;10.040;2023-03-03T05:32:43;2.00;1.00
7564;DHT22;3823;53.586;10.040;2023-03-03T05:35:11;2.00;1.00
7564;DHT22;3823;53.586;10.040;2023-03-03T05:37:42;2.00;1.00
7564;DHT22;3823;53.586;10.040;2023-03-03T05:40:12;2.10;1.00
7564;DHT22;3823;53.586;10.040;2023-03-03T05:42:38;2.00;1.00
7564;DHT22;3823;53.586;10.040;2023-03-03T05:45:05;2.00;1.00
7564;DHT22;3823;53.586;10.040;2023-03-03T05:47:39;2.00;1.00
7564;DHT22;3823;53.586;10.040;2023-03-03T05:50:15;2.00;1.00
7564;DHT22;3823;53.586;10.040;2023-03-03T05:52:41;2.00;1.00
7564;DHT22;3823;53.586;10.040;2023-03-03T05:55:07;2.00;1.00
7564;DHT22;3823;53.586;10.040;2023-03-03T05:57:43;2.00;1.00
7564;DHT22;3823;53.586;10.040;2023-03-03T06:00:12;1.90;1.00
7564;DHT22;3823;53.586;10.040;2023-03-03T06:02:38;1.90;1.00
7564;DHT22;3823;53.586;10.040;2023-03-03T06:05:08;1.90;1.00
7564;DHT22;3823;53.586;10.040;2023-03-03T06:07:48;1.90;1.00
7564;DHT22;3823;53.586;10.040;2023-03-03T06:10:24;1.90;1.00
7564;DHT22;3823;53.586;10.040;2023-03-03T06:12:50;1.80;1.00
7564;DHT22;3823;53.586;10.040;2023-03-03T06:15:18;1.80;1.00
7564;DHT22;3823;53.586;10.040;2023-03-03T06:17:44;1.90;1.00
7564;DHT22;3823;53.586;10.040;2023-03-03T06:20:10;1.80;1.00
7564;DHT22;3823;53.586;10.040;2023-03-03T06:22:36;1.90;1.00
7564;DHT22;3823;53.586;10.040;2023-03-03T06:25:04;1.90;1.00
7564;DHT22;3823;53.586;10.040;2023-03-03T06:27:34;1.90;1.00
7564;DHT22;3823;53.586;10.040;2023-03-03T06:30:03;1.90;1.00
7564;DHT22;3823;53.586;10.040;2023-03-03T06:32:29;2.00;1.00
7564;DHT22;3823;53.586;10.040;2023-03-03T06:34:55;2.00;1.00
7564;DHT22;3823;53.586;10.040;2023-03-03T06:37:20;2.00;1.00
7564;DHT22;3823;53.586;10.040;2023-03-03T06:39:46;2.00;1.00
7564;DHT22;3823;53.586;10.040;2023-03-03T06:42:12;2.00;1.00
7564;DHT22;3823;53.586;10.040;2023-03-03T06:44:37;2.00;1.00
7564;DHT22;3823;53.586;10.040;2023-03-03T06:47:03;2.00;1.00
7564;DHT22;3823;53.586;10.040;2023-03-03T06:49:30;2.00;1.00
7564;DHT22;3823;53.586;10.040;2023-03-03T06:51:58;1.90;1.00
7564;DHT22;3823;53.586;10.040;2023-03-03T06:54:27;1.90;1.00
7564;DHT22;3823;53.586;10.040;2023-03-03T06:56:57;1.90;1.00
7564;DHT22;3823;53.586;10.040;2023-03-03T06:59:25;1.90;1.00
7564;DHT22;3823;53.586;10.040;2023-03-03T07:01:51;2.00;1.00
7564;DHT22;3823;53.586;10.040;2023-03-03T07:04:30;2.00;1.00
7564;DHT22;3823;53.586;10.040;2023-03-03T07:07:12;2.10;1.00
7564;DHT22;3823;53.586;10.040;2023-03-03T07:09:40;2.00;1.00
7564;DHT22;3823;53.586;10.040;2023-03-03T07:12:18;2.10;1.00
7564;DHT22;3823;53.586;10.040;2023-03-03T07:14:46;2.10;1.00
7564;DHT22;3823;53.586;10.040;2023-03-03T07:17:18;2.10;1.00
7564;DHT22;3823;53.586;10.040;2023-03-03T07:19:45;2.10;1.00
7564;DHT22;3823;53.586;10.040;2023-03-03T07:22:23;2.00;1.00
7564;DHT22;3823;53.586;10.040;2023-03-03T07:24:54;2.10;1.00
7564;DHT22;3823;53.586;10.040;2023-03-03T07:27:23;2.10;1.00
7564;DHT22;3823;53.586;10.040;2023-03-03T07:29:51;2.20;1.00
7564;DHT22;3823;53.586;10.040;2023-03-03T07:34:51;2.30;1.00
7564;DHT22;3823;53.586;10.040;2023-03-03T07:37:37;2.30;1.00
7564;DHT22;3823;53.586;10.040;2023-03-03T07:40:33;2.30;1.00
7564;DHT22;3823;53.586;10.040;2023-03-03T07:43:01;2.30;1.00
7564;DHT22;3823;53.586;10.040;2023-03-03T07:45:38;2.30;1.00
7564;DHT22;3823;53.586;10.040;2023-03-03T07:48:36;2.30;1.00
7564;DHT22;3823;53.586;10.040;2023-03-03T07:51:15;2.30;1.00
7564;DHT22;3823;53.586;10.040;2023-03-03T07:53:43;2.30;1.00
7564;DHT22;3823;53.586;10.040;2023-03-03T07:56:28;2.40;1.00
7564;DHT22;3823;53.586;10.040;2023-03-03T07:58:55;2.40;1.00
7564;DHT22;3823;53.586;10.040;2023-03-03T08:01:43;2.40;1.00
7564;DHT22;3823;53.586;10.040;2023-03-03T08:06:50;2.40;1.00
7564;DHT22;3823;53.586;10.040;2023-03-03T08:11:55;2.30;1.00
7564;DHT22;3823;53.586;10.040;2023-03-03T08:14:28;2.30;1.00
7564;DHT22;3823;53.586;10.040;2023-03-03T08:16:55;2.20;1.00
7564;DHT22;3823;53.586;10.040;2023-03-03T08:19:21;2.30;1.00
7564;DHT22;3823;53.586;10.040;2023-03-03T08:21:47;2.30;1.00
7564;DHT22;3823;53.586;10.040;2023-03-03T08:24:13;2.40;1.00
7564;DHT22;3823;53.586;10.040;2023-03-03T08:26:38;2.40;1.00
7564;DHT22;3823;53.586;10.040;2023-03-03T08:29:04;2.50;1.00
7564;DHT22;3823;53.586;10.040;2023-03-03T08:31:29;2.50;1.00
7564;DHT22;3823;53.586;10.040;2023-03-03T08:33:55;2.50;1.00
7564;DHT22;3823;53.586;10.040;2023-03-03T08:36:20;2.50;1.00
7564;DHT22;3823;53.586;10.040;2023-03-03T08:38:46;2.60;1.00
7564;DHT22;3823;53.586;10.040;2023-03-03T08:41:12;2.70;1.00
7564;DHT22;3823;53.586;10.040;2023-03-03T08:43:37;2.60;1.00
7564;DHT22;3823;53.586;10.040;2023-03-03T08:46:05;2.70;1.00
7564;DHT22;3823;53.586;10.040;2023-03-03T08:48:31;2.60;1.00
7564;DHT22;3823;53.586;10.040;2023-03-03T08:50:58;2.60;1.00
7564;DHT22;3823;53.586;10.040;2023-03-03T08:53:24;2.70;1.00
7564;DHT22;3823;53.586;10.040;2023-03-03T08:55:49;2.70;1.00
7564;DHT22;3823;53.586;10.040;2023-03-03T08:58:17;2.70;1.00
7564;DHT22;3823;53.586;10.040;2023-03-03T09:00:43;2.80;1.00
7564;DHT22;3823;53.586;10.040;2023-03-03T09:03:09;2.80;1.00
7564;DHT22;3823;53.586;10.040;2023-03-03T09:05:36;2.80;1.00
7564;DHT22;3823;53.586;10.040;2023-03-03T09:08:02;2.80;1.00
7564;DHT22;3823;53.586;10.040;2023-03-03T09:10:28;2.80;1.00
7564;DHT22;3823;53.586;10.040;2023-03-03T09:12:57;2.80;1.00
7564;DHT22;3823;53.586;10.040;2023-03-03T09:17:49;2.90;1.00
7564;DHT22;3823;53.586;10.040;2023-03-03T09:22:54;3.00;1.00
7564;DHT22;3823;53.586;10.040;2023-03-03T09:25:32;3.10;1.00
7564;DHT22;3823;53.586;10.040;2023-03-03T09:27:59;3.10;1.00
7564;DHT22;3823;53.586;10.040;2023-03-03T09:30:35;3.20;1.00
7564;DHT22;3823;53.586;10.040;2023-03-03T09:33:23;3.20;1.00
7564;DHT22;3823;53.586;10.040;2023-03-03T09:38:39;3.30;1.00
7564;DHT22;3823;53.586;10.040;2023-03-03T09:44:10;3.40;1.00
7564;DHT22;3823;53.586;10.040;2023-03-03T09:46:54;3.40;1.00
7564;DHT22;3823;53.586;10.040;2023-03-03T10:04:05;3.30;1.00
7564;DHT22;3823;53.586;10.040;2023-03-03T10:09:46;3.40;1.00
7564;DHT22;3823;53.586;10.040;2023-03-03T10:17:50;3.60;1.00
7564;DHT22;3823;53.586;10.040;2023-03-03T10:20:22;3.60;1.00
7564;DHT22;3823;53.586;10.040;2023-03-03T10:23:17;3.60;1.00
7564;DHT22;3823;53.586;10.040;2023-03-03T10:26:16;3.60;1.00
7564;DHT22;3823;53.586;10.040;2023-03-03T10:34:09;3.60;1.00
7564;DHT22;3823;53.586;10.040;2023-03-03T10:45:08;3.90;1.00
7564;DHT22;3823;53.586;10.040;2023-03-03T10:47:52;3.90;1.00
7564;DHT22;3823;53.586;10.040;2023-03-03T10:56:14;4.20;1.00
7564;DHT22;3823;53.586;10.040;2023-03-03T10:58:52;4.20;1.00
7564;DHT22;3823;53.586;10.040;2023-03-03T11:07:21;4.10;1.00
7564;DHT22;3823;53.586;10.040;2023-03-03T11:13:02;4.20;1.00
7564;DHT22;3823;53.586;10.040;2023-03-03T11:18:35;4.40;1.00
7564;DHT22;3823;53.586;10.040;2023-03-03T11:26:24;4.40;1.00
7564;DHT22;3823;53.586;10.040;2023-03-03T11:37:02;4.50;1.00
7564;DHT22;3823;53.586;10.040;2023-03-03T11:39:28;4.60;1.00
7564;DHT22;3823;53.586;10.040;2023-03-03T11:42:28;4.70;1.00
7564;DHT22;3823;53.586;10.040;2023-03-03T11:45:04;4.70;1.00
7564;DHT22;3823;53.586;10.040;2023-03-03T11:47:51;4.80;1.00
7564;DHT22;3823;53.586;10.040;2023-03-03T11:50:21;4.80;1.00
7564;DHT22;3823;53.586;10.040;2023-03-03T11:53:13;4.90;1.00
7564;DHT22;3823;53.586;10.040;2023-03-03T11:55:46;4.90;1.00
7564;DHT22;3823;53.586;10.040;2023-03-03T11:58:29;5.00;1.00
7564;DHT22;3823;53.586;10.040;2023-03-03T12:01:20;5.00;1.00
7564;DHT22;3823;53.586;10.040;2023-03-03T12:03:59;5.10;1.00
7564;DHT22;3823;53.586;10.040;2023-03-03T12:06:48;5.20;1.00
7564;DHT22;3823;53.586;10.040;2023-03-03T12:12:18;5.20;1.00
7564;DHT22;3823;53.586;10.040;2023-03-03T12:15:36;5.20;1.00
7564;DHT22;3823;53.586;10.040;2023-03-03T12:17:54;5.20;1.00
7564;DHT22;3823;53.586;10.040;2023-03-03T12:23:33;5.40;1.00
7564;DHT22;3823;53.586;10.040;2023-03-03T12:26:12;5.40;1.00
7564;DHT22;3823;53.586;10.040;2023-03-03T12:29:24;5.50;99.90
7564;DHT22;3823;53.586;10.040;2023-03-03T12:31:54;5.50;99.90
7564;DHT22;3823;53.586;10.040;2023-03-03T12:34:35;5.70;99.90
7564;DHT22;3823;53.586;10.040;2023-03-03T12:42:48;6.00;99.90
7564;DHT22;3823;53.586;10.040;2023-03-03T12:45:45;6.00;99.90
7564;DHT22;3823;53.586;10.040;2023-03-03T12:48:20;6.10;99.90
7564;DHT22;3823;53.586;10.040;2023-03-03T12:50:56;6.10;99.90
7564;DHT22;3823;53.586;10.040;2023-03-03T12:56:03;6.20;99.90
7564;DHT22;3823;53.586;10.040;2023-03-03T12:58:51;6.20;99.90
7564;DHT22;3823;53.586;10.040;2023-03-03T13:04:37;6.20;99.90
7564;DHT22;3823;53.586;10.040;2023-03-03T13:07:18;6.20;99.90
7564;DHT22;3823;53.586;10.040;2023-03-03T13:09:53;6.20;99.90
7564;DHT22;3823;53.586;10.040;2023-03-03T13:12:31;6.10;99.90
7564;DHT22;3823;53.586;10.040;2023-03-03T13:20:42;6.10;99.90
7564;DHT22;3823;53.586;10.040;2023-03-03T13:25:58;6.20;99.90
7564;DHT22;3823;53.586;10.040;2023-03-03T13:28:40;6.30;99.90
7564;DHT22;3823;53.586;10.040;2023-03-03T13:31:14;6.40;99.90
7564;DHT22;3823;53.586;10.040;2023-03-03T13:33:43;6.40;99.90
7564;DHT22;3823;53.586;10.040;2023-03-03T13:36:16;6.30;99.90
7564;DHT22;3823;53.586;10.040;2023-03-03T13:38:48;6.50;99.90
7564;DHT22;3823;53.586;10.040;2023-03-03T13:46:41;6.70;99.90
7564;DHT22;3823;53.586;10.040;2023-03-03T13:52:08;6.80;98.40
7564;DHT22;3823;53.586;10.040;2023-03-03T13:58:02;6.80;7.80
7564;DHT22;3823;53.586;10.040;2023-03-03T14:00:35;6.90;1.00
7564;DHT22;3823;53.586;10.040;2023-03-03T14:05:49;6.90;1.00
7564;DHT22;3823;53.586;10.040;2023-03-03T14:13:59;6.90;1.00
7564;DHT22;3823;53.586;10.040;2023-03-03T14:16:50;6.90;1.00
7564;DHT22;3823;53.586;10.040;2023-03-03T14:19:35;6.90;1.00
7564;DHT22;3823;53.586;10.040;2023-03-03T14:22:16;6.80;1.00
7564;DHT22;3823;53.586;10.040;2023-03-03T14:25:07;6.80;1.00
7564;DHT22;3823;53.586;10.040;2023-03-03T14:30:36;6.90;1.00
7564;DHT22;3823;53.586;10.040;2023-03-03T14:35:49;6.90;1.00
7564;DHT22;3823;53.586;10.040;2023-03-03T14:38:24;6.90;1.00
7564;DHT22;3823;53.586;10.040;2023-03-03T14:41:48;6.80;1.00
7564;DHT22;3823;53.586;10.040;2023-03-03T14:43:59;6.80;1.00
7564;DHT22;3823;53.586;10.040;2023-03-03T14:46:35;6.90;1.00
7564;DHT22;3823;53.586;10.040;2023-03-03T14:49:04;6.90;1.00
7564;DHT22;3823;53.586;10.040;2023-03-03T14:51:43;6.80;1.00
7564;DHT22;3823;53.586;10.040;2023-03-03T14:57:22;6.80;1.00
7564;DHT22;3823;53.586;10.040;2023-03-03T15:00:00;6.80;1.00
7564;DHT22;3823;53.586;10.040;2023-03-03T15:05:26;6.80;1.00
7564;DHT22;3823;53.586;10.040;2023-03-03T15:08:13;6.80;1.00
7564;DHT22;3823;53.586;10.040;2023-03-03T15:10:44;6.80;1.00
7564;DHT22;3823;53.586;10.040;2023-03-03T15:16:17;6.80;1.00
7564;DHT22;3823;53.586;10.040;2023-03-03T15:21:48;6.70;1.00
7564;DHT22;3823;53.586;10.040;2023-03-03T15:24:33;6.70;1.00
7564;DHT22;3823;53.586;10.040;2023-03-03T15:27:09;6.70;1.00
7564;DHT22;3823;53.586;10.040;2023-03-03T15:30:01;6.80;1.00
7564;DHT22;3823;53.586;10.040;2023-03-03T15:39:07;6.70;1.00
7564;DHT22;3823;53.586;10.040;2023-03-03T15:56:03;6.60;1.00
7564;DHT22;3823;53.586;10.040;2023-03-03T15:58:59;6.60;1.00
7564;DHT22;3823;53.586;10.040;2023-03-03T16:01:33;6.60;1.00
7564;DHT22;3823;53.586;10.040;2023-03-03T16:15:28;6.50;1.00
7564;DHT22;3823;53.586;10.040;2023-03-03T16:23:45;6.50;1.00
7564;DHT22;3823;53.586;10.040;2023-03-03T16:31:48;6.40;1.00
7564;DHT22;3823;53.586;10.040;2023-03-03T16:34:24;6.40;1.00
7564;DHT22;3823;53.586;10.040;2023-03-03T16:39:38;6.30;1.00
7564;DHT22;3823;53.586;10.040;2023-03-03T16:42:29;6.30;1.00
7564;DHT22;3823;53.586;10.040;2023-03-03T16:50:26;6.30;1.00
7564;DHT22;3823;53.586;10.040;2023-03-03T16:53:15;6.30;1.00
7564;DHT22;3823;53.586;10.040;2023-03-03T16:58:40;6.40;1.00
7564;DHT22;3823;53.586;10.040;2023-03-03T17:04:00;6.40;1.00
7564;DHT22;3823;53.586;10.040;2023-03-03T17:06:48;6.30;16.80
7564;DHT22;3823;53.586;10.040;2023-03-03T17:12:05;6.30;24.60
7564;DHT22;3823;53.586;10.040;2023-03-03T17:17:17;6.30;46.90
7564;DHT22;3823;53.586;10.040;2023-03-03T17:34:06;6.20;69.40
7564;DHT22;3823;53.586;10.040;2023-03-03T17:36:48;6.20;34.10
7564;DHT22;3823;53.586;10.040;2023-03-03T17:56:04;6.10;96.30
7564;DHT22;3823;53.586;10.040;2023-03-03T17:58:49;6.00;96.50
7564;DHT22;3823;53.586;10.040;2023-03-03T18:04:08;6.10;77.60
7564;DHT22;3823;53.586;10.040;2023-03-03T18:12:41;6.10;95.50
7564;DHT22;3823;53.586;10.040;2023-03-03T18:23:35;6.10;99.90
7564;DHT22;3823;53.586;10.040;2023-03-03T18:29:17;6.00;99.90
7564;DHT22;3823;53.586;10.040;2023-03-03T18:32:00;6.00;99.90
7564;DHT22;3823;53.586;10.040;2023-03-03T18:34:36;6.10;99.90
7564;DHT22;3823;53.586;10.040;2023-03-03T18:42:37;6.10;99.90
7564;DHT22;3823;53.586;10.040;2023-03-03T18:48:04;6.00;99.90
7564;DHT22;3823;53.586;10.040;2023-03-03T18:50:32;6.10;99.90
7564;DHT22;3823;53.586;10.040;2023-03-03T18:56:00;6.00;99.90
7564;DHT22;3823;53.586;10.040;2023-03-03T18:58:33;6.00;99.90
7564;DHT22;3823;53.586;10.040;2023-03-03T19:01:31;5.90;99.90
7564;DHT22;3823;53.586;10.040;2023-03-03T19:09:10;5.90;99.90
7564;DHT22;3823;53.586;10.040;2023-03-03T19:11:54;5.90;99.90
7564;DHT22;3823;53.586;10.040;2023-03-03T19:16:51;5.90;99.90
7564;DHT22;3823;53.586;10.040;2023-03-03T19:19:19;5.80;99.90
7564;DHT22;3823;53.586;10.040;2023-03-03T19:21:51;5.80;99.90
7564;DHT22;3823;53.586;10.040;2023-03-03T19:24:36;5.70;99.90
7564;DHT22;3823;53.586;10.040;2023-03-03T19:27:31;5.70;99.90
7564;DHT22;3823;53.586;10.040;2023-03-03T19:33:06;5.80;99.90
7564;DHT22;3823;53.586;10.040;2023-03-03T19:41:13;5.70;99.90
7564;DHT22;3823;53.586;10.040;2023-03-03T19:44:10;5.80;99.90
7564;DHT22;3823;53.586;10.040;2023-03-03T19:49:54;5.70;99.90
7564;DHT22;3823;53.586;10.040;2023-03-03T19:52:43;5.60;99.90
7564;DHT22;3823;53.586;10.040;2023-03-03T19:55:37;5.70;99.90
7564;DHT22;3823;53.586;10.040;2023-03-03T20:00:46;5.60;99.90
7564;DHT22;3823;53.586;10.040;2023-03-03T20:09:16;5.70;99.90
7564;DHT22;3823;53.586;10.040;2023-03-03T20:11:50;5.60;99.90
7564;DHT22;3823;53.586;10.040;2023-03-03T20:14:49;5.60;99.90
7564;DHT22;3823;53.586;10.040;2023-03-03T20:20:31;5.70;99.90
7564;DHT22;3823;53.586;10.040;2023-03-03T20:26:01;5.70;99.90
7564;DHT22;3823;53.586;10.040;2023-03-03T20:31:36;5.70;99.90
7564;DHT22;3823;53.586;10.040;2023-03-03T20:39:42;5.70;99.90
7564;DHT22;3823;53.586;10.040;2023-03-03T20:45:05;5.70;99.90
7564;DHT22;3823;53.586;10.040;2023-03-03T20:53:40;5.80;99.90
7564;DHT22;3823;53.586;10.040;2023-03-03T20:56:29;5.80;99.90
7564;DHT22;3823;53.586;10.040;2023-03-03T21:02:11;5.80;99.90
7564;DHT22;3823;53.586;10.040;2023-03-03T21:04:40;5.80;99.90
7564;DHT22;3823;53.586;10.040;2023-03-03T21:07:05;5.90;99.90
7564;DHT22;3823;53.586;10.040;2023-03-03T21:09:35;5.90;99.90
7564;DHT22;3823;53.586;10.040;2023-03-03T21:15:02;5.90;99.90
7564;DHT22;3823;53.586;10.040;2023-03-03T21:17:30;5.80;99.90
7564;DHT22;3823;53.586;10.040;2023-03-03T21:22:44;5.80;99.90
7564;DHT22;3823;53.586;10.040;2023-03-03T21:28:15;5.80;99.90
7564;DHT22;3823;53.586;10.040;2023-03-03T21:31:10;5.80;99.90
7564;DHT22;3823;53.586;10.040;2023-03-03T21:36:18;5.80;99.90
7564;DHT22;3823;53.586;10.040;2023-03-03T21:38:45;5.90;99.90
7564;DHT22;3823;53.586;10.040;2023-03-03T21:41:11;5.90;99.90
7564;DHT22;3823;53.586;10.040;2023-03-03T21:43:40;6.00;99.90
7564;DHT22;3823;53.586;10.040;2023-03-03T21:46:06;5.90;99.90
7564;DHT22;3823;53.586;10.040;2023-03-03T21:48:32;5.90;99.90
7564;DHT22;3823;53.586;10.040;2023-03-03T21:50:57;6.00;99.90
7564;DHT22;3823;53.586;10.040;2023-03-03T21:53:23;6.10;99.90
7564;DHT22;3823;53.586;10.040;2023-03-03T21:55:53;6.10;99.90
7564;DHT22;3823;53.586;10.040;2023-03-03T21:58:19;6.10;99.90
7564;DHT22;3823;53.586;10.040;2023-03-03T22:00:45;6.10;99.90
7564;DHT22;3823;53.586;10.040;2023-03-03T22:03:11;6.10;99.90
7564;DHT22;3823;53.586;10.040;2023-03-03T22:05:38;6.00;99.90
7564;DHT22;3823;53.586;10.040;2023-03-03T22:08:05;6.00;99.90
7564;DHT22;3823;53.586;10.040;2023-03-03T22:10:30;6.00;99.90
7564;DHT22;3823;53.586;10.040;2023-03-03T22:12:56;6.00;99.90
7564;DHT22;3823;53.586;10.040;2023-03-03T22:15:21;6.00;99.90
7564;DHT22;3823;53.586;10.040;2023-03-03T22:17:47;6.00;99.90
7564;DHT22;3823;53.586;10.040;2023-03-03T22:20:13;6.00;99.90
7564;DHT22;3823;53.586;10.040;2023-03-03T22:22:40;6.00;99.90
7564;DHT22;3823;53.586;10.040;2023-03-03T22:25:06;6.00;99.90
7564;DHT22;3823;53.586;10.040;2023-03-03T22:27:32;6.00;99.90
7564;DHT22;3823;53.586;10.040;2023-03-03T22:29:57;6.00;1.00
7564;DHT22;3823;53.586;10.040;2023-03-03T22:32:23;6.00;99.90
7564;DHT22;3823;53.586;10.040;2023-03-03T22:34:49;6.00;99.90
7564;DHT22;3823;53.586;10.040;2023-03-03T22:37:14;5.90;1.00
7564;DHT22;3823;53.586;10.040;2023-03-03T22:39:40;6.00;99.90
7564;DHT22;3823;53.586;10.040;2023-03-03T22:42:05;5.90;99.90